Elisabeth K — PBEO — position and weather

sailwx.info

Track history (hours):
 
Tides and Currents Weather Stations Pressure Air Temp Water Temp Dewpoint Dewpoint Depression Visibility Wind Speed Wind Dir Waves Ship Positions

Elisabeth K

Last reported at 2017-Jun-26 01:25 UTC. Time now 2017-Jun-26 02:02 UTC.
Position N 36°30' W 008°55'.

Length 87.9 m; beam 12.8 m; draft 5.5 m.

Type: Cargo ship. MMSI: 245712000.

Date/timePositionNaut miles runAvg speedWind from/ knotsBaromVisibWave heightAir tempDewpointWater temp
2017-Jun-26 01:25N 36°30' W 008°55'5 9.9
2017-Jun-26 00:57N 36°31' W 009°01'5 9.4
2017-Jun-26 00:26N 36°33' W 009°06'4 9.4
2017-Jun-26 00:00N 36°34' W 009°11'14 9.2
2017-Jun-25 22:29N 36°42' W 009°25'12 9.0
2017-Jun-25 21:07N 36°53' W 009°33'110.3
2017-Jun-25 21:00N 36°54' W 009°33'510.2
2017-Jun-25 20:30N 36°59' W 009°35'5 9.8
2017-Jun-25 20:00N 37°03' W 009°36'6 9.6
2017-Jun-25 19:22N 37°09' W 009°38'4 9.7
2017-Jun-25 19:00N 37°13' W 009°39'16 9.6
2017-Jun-25 17:19N 37°28' W 009°44'3 9.3
2017-Jun-25 17:00N 37°31' W 009°45'2910.4
2017-Jun-25 14:11N 38°00' W 009°54'710.7
2017-Jun-25 13:30N 38°07' W 009°56'510.4
2017-Jun-25 13:00N 38°12' W 009°57'510.1
2017-Jun-25 12:30N 38°17' W 009°59'510.0
2017-Jun-25 12:00N 38°22' W 009°60'510.2
2017-Jun-25 11:30N 38°27' W 010°01'510.3
2017-Jun-25 11:00N 38°32' W 010°02'910.0
2017-Jun-25 10:08N 38°41' W 010°04'110.5
2017-Jun-25 10:00N 38°42' W 010°05'510.1
2017-Jun-25 09:29N 38°47' W 010°05'5 9.7
2017-Jun-25 09:00N 38°52' W 010°05'5 9.7
2017-Jun-25 08:30N 38°57' W 010°05'5 9.9
2017-Jun-25 08:00N 39°02' W 010°05'510.2
2017-Jun-25 07:30N 39°07' W 010°05'510.3
2017-Jun-25 07:00N 39°12' W 010°05'5 9.7
2017-Jun-25 06:30N 39°17' W 010°05'18 9.5
2017-Jun-25 04:39N 39°35' W 010°05'1 9.5
2017-Jun-25 04:31N 39°36' W 010°05'13 9.7
2017-Jun-25 03:09N 39°49' W 010°06'210.0
2017-Jun-25 03:00N 39°51' W 010°06'  
2017-Jun-21 15:06N 46°00' W 006°43'1 9.9
2017-Jun-21 15:00N 46°01' W 006°43'5 9.7
2017-Jun-21 14:30N 46°06' W 006°42'8 8.4
2017-Jun-21 13:30N 46°14' W 006°40'510.3
2017-Jun-21 13:00N 46°19' W 006°39'510.2
2017-Jun-21 12:30N 46°24' W 006°38'14 9.9
2017-Jun-21 11:06N 46°38' W 006°34'210.3
2017-Jun-21 10:52N 46°40' W 006°32'510.4
2017-Jun-21 10:25N 46°44' W 006°29'511.0
2017-Jun-21 10:00N 46°48' W 006°25'710.7
2017-Jun-21 09:22N 46°54' W 006°20'710.5
2017-Jun-21 08:42N 47°01' W 006°18'910.7
2017-Jun-21 07:50N 47°10' W 006°17'2111.1
2017-Jun-21 05:59N 47°30' W 006°12'611.7
2017-Jun-21 05:29N 47°36' W 006°11'611.7
2017-Jun-21 05:00N 47°41' W 006°09'611.8
2017-Jun-21 04:30N 47°47' W 006°08'611.9
2017-Jun-21 04:00N 47°53' W 006°07'611.5
2017-Jun-21 03:30N 47°59' W 006°05'1211.2
2017-Jun-21 02:27N 48°10' W 006°03'810.4
2017-Jun-21 01:38N 48°19' W 006°01'210.3
2017-Jun-21 01:27N 48°21' W 006°01'510.0
2017-Jun-21 00:58N 48°26' W 005°60'6 9.8
2017-Jun-21 00:22N 48°31' W 005°59'6 9.6
2017-Jun-20 23:46N 48°37' W 005°58'4 9.7
2017-Jun-20 23:23N 48°41' W 005°56'4 9.4
2017-Jun-20 23:00N 48°44' W 005°54'5 9.9
2017-Jun-20 22:30N 48°48' W 005°50'510.0
2017-Jun-20 22:00N 48°52' W 005°46'510.0
2017-Jun-20 21:30N 48°56' W 005°41'510.5
2017-Jun-20 21:00N 48°59' W 005°34'510.9
2017-Jun-20 20:30N 49°02' W 005°27'611.4
2017-Jun-20 20:00N 49°04' W 005°19'1011.7
2017-Jun-20 19:08N 49°10' W 005°06'1211.5
2017-Jun-20 18:07N 49°15' W 004°51'211.3
2017-Jun-20 17:57N 49°16' W 004°48'711.1
2017-Jun-20 17:18N 49°20' W 004°38'311.0
2017-Jun-20 17:00N 49°21' W 004°34'510.7
2017-Jun-20 16:30N 49°24' W 004°27'510.4
2017-Jun-20 16:00N 49°27' W 004°20'610.1
2017-Jun-20 15:22N 49°30' W 004°11'4 9.7
2017-Jun-20 15:00N 49°32' W 004°07'5 9.6
2017-Jun-20 14:30N 49°34' W 004°00'10 9.6
2017-Jun-20 13:30N 49°39' W 003°47'5 9.8
2017-Jun-20 13:00N 49°41' W 003°40'510.2
2017-Jun-20 12:30N 49°43' W 003°34'710.7
2017-Jun-20 11:52N 49°47' W 003°25'411.1
2017-Jun-20 11:30N 49°49' W 003°19'611.8
2017-Jun-20 11:00N 49°52' W 003°11'612.2
2017-Jun-20 10:30N 49°55' W 003°03'612.4
2017-Jun-20 10:00N 49°58' W 002°55'612.7
2017-Jun-20 09:30N 49°60' W 002°45'612.8
2017-Jun-20 09:00N 50°01' W 002°36'712.6
2017-Jun-20 08:28N 50°03' W 002°25'612.2
2017-Jun-20 07:56N 50°05' W 002°16'3110.0
2017-Jun-20 04:47N 50°14' W 001°29'3 8.3
2017-Jun-20 04:26N 50°15' W 001°25'4 8.2
2017-Jun-20 03:57N 50°16' W 001°19'6 8.3
2017-Jun-20 03:12N 50°18' W 001°09'13 9.3
2017-Jun-20 01:47N 50°22' W 000°49'1211.1
2017-Jun-20 00:43N 50°26' W 000°32'611.8
2017-Jun-20 00:12N 50°28' W 000°23'211.8
2017-Jun-20 00:00N 50°28' W 000°19'612.0
2017-Jun-19 23:30N 50°30' W 000°10'612.1
2017-Jun-19 23:00N 50°32' W 000°01'612.0
2017-Jun-19 22:30N 50°34' E 000°08'611.9
2017-Jun-19 22:00N 50°35' E 000°17'611.7
2017-Jun-19 21:30N 50°37' E 000°26'611.3
2017-Jun-19 21:00N 50°39' E 000°34'611.2
2017-Jun-19 20:30N 50°42' E 000°41'2010.4
2017-Jun-19 18:36N 50°54' E 001°06'110.2
2017-Jun-19 18:29N 50°55' E 001°08'510.1
2017-Jun-19 18:00N 50°58' E 001°14'510.4
2017-Jun-19 17:30N 51°01' E 001°20'511.2
2017-Jun-19 17:00N 51°04' E 001°27'612.3
2017-Jun-19 16:30N 51°08' E 001°35'612.7
2017-Jun-19 16:00N 51°12' E 001°43'713.3
2017-Jun-19 15:30N 51°18' E 001°49'713.0
2017-Jun-19 15:00N 51°23' E 001°56'612.9
2017-Jun-19 14:30N 51°28' E 002°02'1212.1
2017-Jun-19 13:30N 51°37' E 002°14'611.7
2017-Jun-19 13:00N 51°42' E 002°20'611.2
2017-Jun-19 12:30N 51°46' E 002°26'5910.1
2017-Jun-19 06:37N 52°33' E 003°26'111.3
2017-Jun-19 06:30N 52°34' E 003°27'611.4
2017-Jun-19 06:00N 52°38' E 003°33'611.7
2017-Jun-19 05:30N 52°43' E 003°39'611.8
2017-Jun-19 05:00N 52°47' E 003°46'611.9
2017-Jun-19 04:30N 52°51' E 003°52'611.9
2017-Jun-19 04:00N 52°56' E 003°58'611.8
2017-Jun-19 03:30N 53°00' E 004°06'611.5
2017-Jun-19 03:00N 53°04' E 004°13'511.0
2017-Jun-19 02:30N 53°07' E 004°20'710.4
2017-Jun-19 01:53N 53°12' E 004°26'410.5
2017-Jun-19 01:28N 53°16' E 004°29'20 9.2
2017-Jun-18 23:20N 53°31' E 004°51'6 9.9
2017-Jun-18 22:46N 53°33' E 005°00'9910.6
2017-Jun-18 13:28N 54°01' E 007°40'5 9.7
2017-Jun-18 12:59N 54°01' E 007°48'510.1
2017-Jun-18 12:28N 54°01' E 007°57'510.6
2017-Jun-18 12:00N 54°01' E 008°06'611.6
2017-Jun-18 11:30N 54°00' E 008°15'613.0
2017-Jun-18 11:00N 53°59' E 008°26'713.4
2017-Jun-18 10:30N 53°58' E 008°37'713.9
2017-Jun-18 10:00N 53°52' E 008°44'713.2
2017-Jun-18 09:30N 53°51' E 008°55'713.2
2017-Jun-18 09:00N 53°53' E 009°06'611.5
2017-Jun-18 08:29N 53°52' E 009°16'510.9
2017-Jun-18 08:01N 53°49' E 009°23'2 3.8
2017-Jun-18 07:26N 53°47' E 009°25'0 0.0
2017-Jun-18 06:59N 53°47' E 009°25'0 0.0
2017-Jun-18 06:29N 53°47' E 009°25'0 0.0
2017-Jun-18 05:56N 53°47' E 009°25'0 0.0
2017-Jun-18 05:29N 53°47' E 009°25'0 0.0
2017-Jun-18 04:59N 53°47' E 009°25'0 0.0
2017-Jun-18 04:29N 53°47' E 009°25'0 0.0
2017-Jun-18 03:59N 53°47' E 009°25'0 0.0
2017-Jun-18 03:29N 53°47' E 009°25'0 0.0
2017-Jun-18 02:59N 53°47' E 009°25'0 0.0
2017-Jun-18 02:30N 53°47' E 009°25'0 0.0
2017-Jun-18 01:59N 53°47' E 009°25'0 0.0
2017-Jun-18 01:29N 53°47' E 009°25'0 0.0
2017-Jun-18 00:59N 53°47' E 009°25'0 0.0
2017-Jun-18 00:29N 53°47' E 009°25'0 0.0
2017-Jun-17 23:59N 53°47' E 009°25'0 0.0
2017-Jun-17 23:29N 53°47' E 009°25'0 0.0
2017-Jun-17 22:59N 53°47' E 009°25'0 0.0
2017-Jun-17 22:29N 53°47' E 009°25'0 0.0
2017-Jun-17 21:59N 53°47' E 009°25'0 0.0
2017-Jun-17 21:29N 53°47' E 009°25'0 0.0
2017-Jun-17 20:59N 53°47' E 009°25'0 0.0
2017-Jun-17 20:29N 53°47' E 009°25'0 0.0
2017-Jun-17 19:59N 53°47' E 009°25'0 0.0
2017-Jun-17 19:29N 53°47' E 009°25'0 0.0
2017-Jun-17 18:59N 53°47' E 009°25'0 0.0
2017-Jun-17 18:29N 53°47' E 009°25'0 0.0
2017-Jun-17 17:59N 53°47' E 009°25'0 0.0
2017-Jun-17 17:29N 53°47' E 009°25'0 0.0
2017-Jun-17 16:59N 53°47' E 009°25'0 0.0
2017-Jun-17 16:29N 53°47' E 009°25'0 0.0
2017-Jun-17 15:59N 53°47' E 009°25'0 0.0
2017-Jun-17 15:29N 53°47' E 009°25'0 0.0
2017-Jun-17 14:59N 53°47' E 009°25'0 0.0
2017-Jun-17 13:59N 53°47' E 009°25'0 0.0
2017-Jun-17 13:29N 53°47' E 009°25'0 0.0
2017-Jun-17 12:59N 53°47' E 009°25'0 0.0
2017-Jun-17 12:29N 53°47' E 009°25'0 0.0
2017-Jun-17 11:59N 53°47' E 009°25'0 0.0
2017-Jun-17 11:29N 53°47' E 009°25'0 0.0
2017-Jun-17 10:59N 53°47' E 009°25'0 0.0
2017-Jun-17 10:29N 53°47' E 009°25'0 0.0
2017-Jun-17 09:59N 53°47' E 009°25'0 0.0
2017-Jun-17 09:30N 53°47' E 009°25'0 0.0
2017-Jun-17 08:55N 53°47' E 009°25'0 0.0
2017-Jun-17 08:25N 53°47' E 009°25'0 0.0
2017-Jun-17 07:58N 53°47' E 009°25'0 0.0
2017-Jun-17 07:25N 53°47' E 009°25'0 0.0
2017-Jun-17 06:58N 53°47' E 009°25'0 0.0
2017-Jun-17 06:28N 53°47' E 009°25'0 0.0
2017-Jun-17 05:58N 53°47' E 009°25'0 0.0
2017-Jun-17 05:25N 53°47' E 009°25'0 0.0
2017-Jun-17 04:58N 53°47' E 009°25'0 0.0
2017-Jun-17 04:28N 53°47' E 009°25'0 0.0
2017-Jun-17 03:55N 53°47' E 009°25'0 0.0
2017-Jun-17 03:28N 53°47' E 009°25'0 0.0
2017-Jun-17 02:58N 53°47' E 009°25'0 0.0
2017-Jun-17 02:28N 53°47' E 009°25'0 0.0
2017-Jun-17 01:58N 53°47' E 009°25'0 0.0
2017-Jun-17 01:28N 53°47' E 009°25'0 0.0
2017-Jun-17 00:58N 53°47' E 009°25'0 0.0
2017-Jun-17 00:28N 53°47' E 009°25'0 0.0
2017-Jun-16 23:58N 53°47' E 009°25'0 0.0
2017-Jun-16 23:28N 53°47' E 009°25'0 0.0
2017-Jun-16 22:58N 53°47' E 009°25'0 0.0
2017-Jun-16 22:25N 53°47' E 009°25'0 0.0
2017-Jun-16 21:55N 53°47' E 009°25'0 0.0
2017-Jun-16 21:28N 53°47' E 009°25'0 0.0
2017-Jun-16 20:58N 53°47' E 009°25'0 0.0
2017-Jun-16 20:31N 53°47' E 009°25'0 0.0
2017-Jun-16 20:01N 53°47' E 009°25'0 0.0
2017-Jun-16 19:31N 53°47' E 009°25'0 0.0
2017-Jun-16 19:01N 53°47' E 009°25'0 0.0
2017-Jun-16 18:30N 53°47' E 009°25'0 0.0
2017-Jun-16 18:00N 53°47' E 009°25'0 0.0
2017-Jun-16 17:30N 53°47' E 009°25'0 0.0
2017-Jun-16 17:00N 53°47' E 009°25'0 0.0
2017-Jun-16 16:30N 53°47' E 009°25'0 0.0
2017-Jun-16 16:00N 53°47' E 009°25'0 0.0
2017-Jun-16 15:30N 53°47' E 009°25'0 0.0
2017-Jun-16 15:00N 53°47' E 009°25'0 0.0
2017-Jun-16 14:00N 53°47' E 009°25'0 0.0
2017-Jun-16 13:24N 53°47' E 009°25'0 0.0
2017-Jun-16 13:00N 53°47' E 009°25'0 0.0
2017-Jun-16 12:30N 53°47' E 009°25'0 0.0
2017-Jun-16 12:00N 53°47' E 009°25'0 0.0
2017-Jun-16 11:30N 53°47' E 009°25'0 0.0
2017-Jun-16 10:54N 53°47' E 009°25'0 0.0
2017-Jun-16 10:30N 53°47' E 009°25'0 0.0
2017-Jun-16 10:01N 53°47' E 009°25'0 0.0
2017-Jun-16 09:25N 53°47' E 009°25'0 0.0
2017-Jun-16 09:00N 53°47' E 009°25'0 0.0
2017-Jun-16 08:30N 53°47' E 009°25'0 0.0
2017-Jun-16 07:54N 53°47' E 009°25'0 0.0
2017-Jun-16 07:30N 53°47' E 009°25'0 0.0
2017-Jun-16 07:00N 53°47' E 009°25'0 0.0
2017-Jun-16 06:30N 53°47' E 009°25'0 0.0
2017-Jun-16 06:00N 53°47' E 009°25'0 0.0
2017-Jun-16 05:30N 53°47' E 009°25'0 0.0
2017-Jun-16 05:00N 53°47' E 009°25'0 0.0
2017-Jun-16 04:30N 53°47' E 009°25'0 0.0
2017-Jun-16 04:00N 53°47' E 009°25'0 0.0
2017-Jun-16 03:30N 53°47' E 009°25'0 0.0
2017-Jun-16 03:00N 53°47' E 009°25'0 0.0
2017-Jun-16 02:30N 53°47' E 009°25'0 0.0
2017-Jun-16 02:00N 53°47' E 009°25'0 0.0
2017-Jun-16 01:30N 53°47' E 009°25'  
Track history (hours):
 
Tides and Currents Weather Stations Pressure Air Temp Water Temp Dewpoint Dewpoint Depression Visibility Wind Speed Wind Dir Waves Ship Positions

Elisabeth K

Last reported at 2017-Jun-26 01:25 UTC. Time now 2017-Jun-26 02:02 UTC.
Position N 36°30' W 008°55'.

Length 87.9 m; beam 12.8 m; draft 5.5 m.

Type: Cargo ship. MMSI: 245712000.

Date/timePositionNaut miles runAvg speedWind from/ knotsBaromVisibWave heightAir tempDewpointWater temp
2017-Jun-26 01:25N 36°30' W 008°55'5 9.9
2017-Jun-26 00:57N 36°31' W 009°01'5 9.4
2017-Jun-26 00:26N 36°33' W 009°06'4 9.4
2017-Jun-26 00:00N 36°34' W 009°11'14 9.2
2017-Jun-25 22:29N 36°42' W 009°25'12 9.0
2017-Jun-25 21:07N 36°53' W 009°33'110.3
2017-Jun-25 21:00N 36°54' W 009°33'510.2
2017-Jun-25 20:30N 36°59' W 009°35'5 9.8
2017-Jun-25 20:00N 37°03' W 009°36'6 9.6
2017-Jun-25 19:22N 37°09' W 009°38'4 9.7
2017-Jun-25 19:00N 37°13' W 009°39'16 9.6
2017-Jun-25 17:19N 37°28' W 009°44'3 9.3
2017-Jun-25 17:00N 37°31' W 009°45'2910.4
2017-Jun-25 14:11N 38°00' W 009°54'710.7
2017-Jun-25 13:30N 38°07' W 009°56'510.4
2017-Jun-25 13:00N 38°12' W 009°57'510.1
2017-Jun-25 12:30N 38°17' W 009°59'510.0
2017-Jun-25 12:00N 38°22' W 009°60'510.2
2017-Jun-25 11:30N 38°27' W 010°01'510.3
2017-Jun-25 11:00N 38°32' W 010°02'910.0
2017-Jun-25 10:08N 38°41' W 010°04'110.5
2017-Jun-25 10:00N 38°42' W 010°05'510.1
2017-Jun-25 09:29N 38°47' W 010°05'5 9.7
2017-Jun-25 09:00N 38°52' W 010°05'5 9.7
2017-Jun-25 08:30N 38°57' W 010°05'5 9.9
2017-Jun-25 08:00N 39°02' W 010°05'510.2
2017-Jun-25 07:30N 39°07' W 010°05'510.3
2017-Jun-25 07:00N 39°12' W 010°05'5 9.7
2017-Jun-25 06:30N 39°17' W 010°05'18 9.5
2017-Jun-25 04:39N 39°35' W 010°05'1 9.5
2017-Jun-25 04:31N 39°36' W 010°05'13 9.7
2017-Jun-25 03:09N 39°49' W 010°06'210.0
2017-Jun-25 03:00N 39°51' W 010°06'  
2017-Jun-21 15:06N 46°00' W 006°43'1 9.9
2017-Jun-21 15:00N 46°01' W 006°43'5 9.7
2017-Jun-21 14:30N 46°06' W 006°42'8 8.4
2017-Jun-21 13:30N 46°14' W 006°40'510.3
2017-Jun-21 13:00N 46°19' W 006°39'510.2
2017-Jun-21 12:30N 46°24' W 006°38'14 9.9
2017-Jun-21 11:06N 46°38' W 006°34'210.3
2017-Jun-21 10:52N 46°40' W 006°32'510.4
2017-Jun-21 10:25N 46°44' W 006°29'511.0
2017-Jun-21 10:00N 46°48' W 006°25'710.7
2017-Jun-21 09:22N 46°54' W 006°20'710.5
2017-Jun-21 08:42N 47°01' W 006°18'910.7
2017-Jun-21 07:50N 47°10' W 006°17'2111.1
2017-Jun-21 05:59N 47°30' W 006°12'611.7
2017-Jun-21 05:29N 47°36' W 006°11'611.7
2017-Jun-21 05:00N 47°41' W 006°09'611.8
2017-Jun-21 04:30N 47°47' W 006°08'611.9
2017-Jun-21 04:00N 47°53' W 006°07'611.5
2017-Jun-21 03:30N 47°59' W 006°05'1211.2
2017-Jun-21 02:27N 48°10' W 006°03'810.4
2017-Jun-21 01:38N 48°19' W 006°01'210.3
2017-Jun-21 01:27N 48°21' W 006°01'510.0
2017-Jun-21 00:58N 48°26' W 005°60'6 9.8
2017-Jun-21 00:22N 48°31' W 005°59'6 9.6
2017-Jun-20 23:46N 48°37' W 005°58'4 9.7
2017-Jun-20 23:23N 48°41' W 005°56'4 9.4
2017-Jun-20 23:00N 48°44' W 005°54'5 9.9
2017-Jun-20 22:30N 48°48' W 005°50'510.0
2017-Jun-20 22:00N 48°52' W 005°46'510.0
2017-Jun-20 21:30N 48°56' W 005°41'510.5
2017-Jun-20 21:00N 48°59' W 005°34'510.9
2017-Jun-20 20:30N 49°02' W 005°27'611.4
2017-Jun-20 20:00N 49°04' W 005°19'1011.7
2017-Jun-20 19:08N 49°10' W 005°06'1211.5
2017-Jun-20 18:07N 49°15' W 004°51'211.3
2017-Jun-20 17:57N 49°16' W 004°48'711.1
2017-Jun-20 17:18N 49°20' W 004°38'311.0
2017-Jun-20 17:00N 49°21' W 004°34'510.7
2017-Jun-20 16:30N 49°24' W 004°27'510.4
2017-Jun-20 16:00N 49°27' W 004°20'610.1
2017-Jun-20 15:22N 49°30' W 004°11'4 9.7
2017-Jun-20 15:00N 49°32' W 004°07'5 9.6
2017-Jun-20 14:30N 49°34' W 004°00'10 9.6
2017-Jun-20 13:30N 49°39' W 003°47'5 9.8
2017-Jun-20 13:00N 49°41' W 003°40'510.2
2017-Jun-20 12:30N 49°43' W 003°34'710.7
2017-Jun-20 11:52N 49°47' W 003°25'411.1
2017-Jun-20 11:30N 49°49' W 003°19'611.8
2017-Jun-20 11:00N 49°52' W 003°11'612.2
2017-Jun-20 10:30N 49°55' W 003°03'612.4
2017-Jun-20 10:00N 49°58' W 002°55'612.7
2017-Jun-20 09:30N 49°60' W 002°45'612.8
2017-Jun-20 09:00N 50°01' W 002°36'712.6
2017-Jun-20 08:28N 50°03' W 002°25'612.2
2017-Jun-20 07:56N 50°05' W 002°16'3110.0
2017-Jun-20 04:47N 50°14' W 001°29'3 8.3
2017-Jun-20 04:26N 50°15' W 001°25'4 8.2
2017-Jun-20 03:57N 50°16' W 001°19'6 8.3
2017-Jun-20 03:12N 50°18' W 001°09'13 9.3
2017-Jun-20 01:47N 50°22' W 000°49'1211.1
2017-Jun-20 00:43N 50°26' W 000°32'611.8
2017-Jun-20 00:12N 50°28' W 000°23'211.8
2017-Jun-20 00:00N 50°28' W 000°19'612.0
2017-Jun-19 23:30N 50°30' W 000°10'612.1
2017-Jun-19 23:00N 50°32' W 000°01'612.0
2017-Jun-19 22:30N 50°34' E 000°08'611.9
2017-Jun-19 22:00N 50°35' E 000°17'611.7
2017-Jun-19 21:30N 50°37' E 000°26'611.3
2017-Jun-19 21:00N 50°39' E 000°34'611.2
2017-Jun-19 20:30N 50°42' E 000°41'2010.4
2017-Jun-19 18:36N 50°54' E 001°06'110.2
2017-Jun-19 18:29N 50°55' E 001°08'510.1
2017-Jun-19 18:00N 50°58' E 001°14'510.4
2017-Jun-19 17:30N 51°01' E 001°20'511.2
2017-Jun-19 17:00N 51°04' E 001°27'612.3
2017-Jun-19 16:30N 51°08' E 001°35'612.7
2017-Jun-19 16:00N 51°12' E 001°43'713.3
2017-Jun-19 15:30N 51°18' E 001°49'713.0
2017-Jun-19 15:00N 51°23' E 001°56'612.9
2017-Jun-19 14:30N 51°28' E 002°02'1212.1
2017-Jun-19 13:30N 51°37' E 002°14'611.7
2017-Jun-19 13:00N 51°42' E 002°20'611.2
2017-Jun-19 12:30N 51°46' E 002°26'5910.1
2017-Jun-19 06:37N 52°33' E 003°26'111.3
2017-Jun-19 06:30N 52°34' E 003°27'611.4
2017-Jun-19 06:00N 52°38' E 003°33'611.7
2017-Jun-19 05:30N 52°43' E 003°39'611.8
2017-Jun-19 05:00N 52°47' E 003°46'611.9
2017-Jun-19 04:30N 52°51' E 003°52'611.9
2017-Jun-19 04:00N 52°56' E 003°58'611.8
2017-Jun-19 03:30N 53°00' E 004°06'611.5
2017-Jun-19 03:00N 53°04' E 004°13'511.0
2017-Jun-19 02:30N 53°07' E 004°20'710.4
2017-Jun-19 01:53N 53°12' E 004°26'410.5
2017-Jun-19 01:28N 53°16' E 004°29'20 9.2
2017-Jun-18 23:20N 53°31' E 004°51'6 9.9
2017-Jun-18 22:46N 53°33' E 005°00'9910.6
2017-Jun-18 13:28N 54°01' E 007°40'5 9.7
2017-Jun-18 12:59N 54°01' E 007°48'510.1
2017-Jun-18 12:28N 54°01' E 007°57'510.6
2017-Jun-18 12:00N 54°01' E 008°06'611.6
2017-Jun-18 11:30N 54°00' E 008°15'613.0
2017-Jun-18 11:00N 53°59' E 008°26'713.4
2017-Jun-18 10:30N 53°58' E 008°37'713.9
2017-Jun-18 10:00N 53°52' E 008°44'713.2
2017-Jun-18 09:30N 53°51' E 008°55'713.2
2017-Jun-18 09:00N 53°53' E 009°06'611.5
2017-Jun-18 08:29N 53°52' E 009°16'510.9
2017-Jun-18 08:01N 53°49' E 009°23'2 3.8
2017-Jun-18 07:26N 53°47' E 009°25'0 0.0
2017-Jun-18 06:59N 53°47' E 009°25'0 0.0
2017-Jun-18 06:29N 53°47' E 009°25'0 0.0
2017-Jun-18 05:56N 53°47' E 009°25'0 0.0
2017-Jun-18 05:29N 53°47' E 009°25'0 0.0
2017-Jun-18 04:59N 53°47' E 009°25'0 0.0
2017-Jun-18 04:29N 53°47' E 009°25'0 0.0
2017-Jun-18 03:59N 53°47' E 009°25'0 0.0
2017-Jun-18 03:29N 53°47' E 009°25'0 0.0
2017-Jun-18 02:59N 53°47' E 009°25'0 0.0
2017-Jun-18 02:30N 53°47' E 009°25'0 0.0
2017-Jun-18 01:59N 53°47' E 009°25'0 0.0
2017-Jun-18 01:29N 53°47' E 009°25'0 0.0
2017-Jun-18 00:59N 53°47' E 009°25'0 0.0
2017-Jun-18 00:29N 53°47' E 009°25'0 0.0
2017-Jun-17 23:59N 53°47' E 009°25'0 0.0
2017-Jun-17 23:29N 53°47' E 009°25'0 0.0
2017-Jun-17 22:59N 53°47' E 009°25'0 0.0
2017-Jun-17 22:29N 53°47' E 009°25'0 0.0
2017-Jun-17 21:59N 53°47' E 009°25'0 0.0
2017-Jun-17 21:29N 53°47' E 009°25'0 0.0
2017-Jun-17 20:59N 53°47' E 009°25'0 0.0
2017-Jun-17 20:29N 53°47' E 009°25'0 0.0
2017-Jun-17 19:59N 53°47' E 009°25'0 0.0
2017-Jun-17 19:29N 53°47' E 009°25'0 0.0
2017-Jun-17 18:59N 53°47' E 009°25'0 0.0
2017-Jun-17 18:29N 53°47' E 009°25'0 0.0
2017-Jun-17 17:59N 53°47' E 009°25'0 0.0
2017-Jun-17 17:29N 53°47' E 009°25'0 0.0
2017-Jun-17 16:59N 53°47' E 009°25'0 0.0
2017-Jun-17 16:29N 53°47' E 009°25'0 0.0
2017-Jun-17 15:59N 53°47' E 009°25'0 0.0
2017-Jun-17 15:29N 53°47' E 009°25'0 0.0
2017-Jun-17 14:59N 53°47' E 009°25'0 0.0
2017-Jun-17 13:59N 53°47' E 009°25'0 0.0
2017-Jun-17 13:29N 53°47' E 009°25'0 0.0
2017-Jun-17 12:59N 53°47' E 009°25'0 0.0
2017-Jun-17 12:29N 53°47' E 009°25'0 0.0
2017-Jun-17 11:59N 53°47' E 009°25'0 0.0
2017-Jun-17 11:29N 53°47' E 009°25'0 0.0
2017-Jun-17 10:59N 53°47' E 009°25'0 0.0
2017-Jun-17 10:29N 53°47' E 009°25'0 0.0
2017-Jun-17 09:59N 53°47' E 009°25'0 0.0
2017-Jun-17 09:30N 53°47' E 009°25'0 0.0
2017-Jun-17 08:55N 53°47' E 009°25'0 0.0
2017-Jun-17 08:25N 53°47' E 009°25'0 0.0
2017-Jun-17 07:58N 53°47' E 009°25'0 0.0
2017-Jun-17 07:25N 53°47' E 009°25'0 0.0
2017-Jun-17 06:58N 53°47' E 009°25'0 0.0
2017-Jun-17 06:28N 53°47' E 009°25'0 0.0
2017-Jun-17 05:58N 53°47' E 009°25'0 0.0
2017-Jun-17 05:25N 53°47' E 009°25'0 0.0
2017-Jun-17 04:58N 53°47' E 009°25'0 0.0
2017-Jun-17 04:28N 53°47' E 009°25'0 0.0
2017-Jun-17 03:55N 53°47' E 009°25'0 0.0
2017-Jun-17 03:28N 53°47' E 009°25'0 0.0
2017-Jun-17 02:58N 53°47' E 009°25'0 0.0
2017-Jun-17 02:28N 53°47' E 009°25'0 0.0
2017-Jun-17 01:58N 53°47' E 009°25'0 0.0
2017-Jun-17 01:28N 53°47' E 009°25'0 0.0
2017-Jun-17 00:58N 53°47' E 009°25'0 0.0
2017-Jun-17 00:28N 53°47' E 009°25'0 0.0
2017-Jun-16 23:58N 53°47' E 009°25'0 0.0
2017-Jun-16 23:28N 53°47' E 009°25'0 0.0
2017-Jun-16 22:58N 53°47' E 009°25'0 0.0
2017-Jun-16 22:25N 53°47' E 009°25'0 0.0
2017-Jun-16 21:55N 53°47' E 009°25'0 0.0
2017-Jun-16 21:28N 53°47' E 009°25'0 0.0
2017-Jun-16 20:58N 53°47' E 009°25'0 0.0
2017-Jun-16 20:31N 53°47' E 009°25'0 0.0
2017-Jun-16 20:01N 53°47' E 009°25'0 0.0
2017-Jun-16 19:31N 53°47' E 009°25'0 0.0
2017-Jun-16 19:01N 53°47' E 009°25'0 0.0
2017-Jun-16 18:30N 53°47' E 009°25'0 0.0
2017-Jun-16 18:00N 53°47' E 009°25'0 0.0
2017-Jun-16 17:30N 53°47' E 009°25'0 0.0
2017-Jun-16 17:00N 53°47' E 009°25'0 0.0
2017-Jun-16 16:30N 53°47' E 009°25'0 0.0
2017-Jun-16 16:00N 53°47' E 009°25'0 0.0
2017-Jun-16 15:30N 53°47' E 009°25'0 0.0
2017-Jun-16 15:00N 53°47' E 009°25'0 0.0
2017-Jun-16 14:00N 53°47' E 009°25'0 0.0
2017-Jun-16 13:24N 53°47' E 009°25'0 0.0
2017-Jun-16 13:00N 53°47' E 009°25'0 0.0
2017-Jun-16 12:30N 53°47' E 009°25'0 0.0
2017-Jun-16 12:00N 53°47' E 009°25'0 0.0
2017-Jun-16 11:30N 53°47' E 009°25'0 0.0
2017-Jun-16 10:54N 53°47' E 009°25'0 0.0
2017-Jun-16 10:30N 53°47' E 009°25'0 0.0
2017-Jun-16 10:01N 53°47' E 009°25'0 0.0
2017-Jun-16 09:25N 53°47' E 009°25'0 0.0
2017-Jun-16 09:00N 53°47' E 009°25'0 0.0
2017-Jun-16 08:30N 53°47' E 009°25'0 0.0
2017-Jun-16 07:54N 53°47' E 009°25'0 0.0
2017-Jun-16 07:30N 53°47' E 009°25'0 0.0
2017-Jun-16 07:00N 53°47' E 009°25'0 0.0
2017-Jun-16 06:30N 53°47' E 009°25'0 0.0
2017-Jun-16 06:00N 53°47' E 009°25'0 0.0
2017-Jun-16 05:30N 53°47' E 009°25'0 0.0
2017-Jun-16 05:00N 53°47' E 009°25'0 0.0
2017-Jun-16 04:30N 53°47' E 009°25'0 0.0
2017-Jun-16 04:00N 53°47' E 009°25'0 0.0
2017-Jun-16 03:30N 53°47' E 009°25'0 0.0
2017-Jun-16 03:00N 53°47' E 009°25'0 0.0
2017-Jun-16 02:30N 53°47' E 009°25'0 0.0
2017-Jun-16 02:00N 53°47' E 009°25'0 0.0
2017-Jun-16 01:30N 53°47' E 009°25'  

Dump ship's entire track history